Lowes, Kentucky
Current Conditions -  °F | °C
As of 9:53 PM on Monday 22 Dec 2014 (Local Time) from KPAH Reporting Station
Haze Haze  
Wind Chill: 53°   Ceiling: 800
Heat Index: 53°   Visibility: 6mi
Dew Point: 51°   Wind: 9mph
Humidity: 93%   Direction: 180°S
Pressure: 29.63"   Gusts: 18mph
Location:  36.89°N, 88.77°W
Report Text: KPAH 230353Z 18008G16KT 6SM BR BKN008 OVC013 12/11 A2963 RMK AO2 RAE16B34E44 CIG 006V012 SLP032 P0002 T01170106
Loading
Personal Weather Stations






























Interactive Weather Map New forecast layout! Learn more

10-Day Weather Forecast

Advertisements
Track Severe Weather on mobile